sensor_id;sensor_type;location;lat;lon;timestamp;P1;durP1;ratioP1;P2;durP2;ratioP2
22250;SDS011;59348;52.158;5.588;2022-12-08T00:00:51;6.43;;;3.83;;
22250;SDS011;59348;52.158;5.588;2022-12-08T00:03:19;6.63;;;4.07;;
22250;SDS011;59348;52.158;5.588;2022-12-08T00:05:48;6.95;;;3.97;;
22250;SDS011;59348;52.158;5.588;2022-12-08T00:08:31;8.45;;;4.40;;
22250;SDS011;59348;52.158;5.588;2022-12-08T00:11:13;8.20;;;4.57;;
22250;SDS011;59348;52.158;5.588;2022-12-08T00:13:41;10.38;;;4.65;;
22250;SDS011;59348;52.158;5.588;2022-12-08T00:16:09;7.85;;;4.97;;
22250;SDS011;59348;52.158;5.588;2022-12-08T00:18:37;8.88;;;4.60;;
22250;SDS011;59348;52.158;5.588;2022-12-08T00:21:05;8.80;;;4.90;;
22250;SDS011;59348;52.158;5.588;2022-12-08T00:23:34;7.70;;;4.97;;
22250;SDS011;59348;52.158;5.588;2022-12-08T00:26:02;10.52;;;5.53;;
22250;SDS011;59348;52.158;5.588;2022-12-08T00:28:31;12.80;;;5.90;;
22250;SDS011;59348;52.158;5.588;2022-12-08T00:31:01;9.48;;;5.93;;
22250;SDS011;59348;52.158;5.588;2022-12-08T00:33:33;7.93;;;5.90;;
22250;SDS011;59348;52.158;5.588;2022-12-08T00:36:04;10.02;;;6.18;;
22250;SDS011;59348;52.158;5.588;2022-12-08T00:38:33;8.63;;;6.40;;
22250;SDS011;59348;52.158;5.588;2022-12-08T00:41:02;9.57;;;6.57;;
22250;SDS011;59348;52.158;5.588;2022-12-08T00:43:30;11.20;;;6.75;;
22250;SDS011;59348;52.158;5.588;2022-12-08T00:45:58;9.10;;;7.00;;
22250;SDS011;59348;52.158;5.588;2022-12-08T00:48:26;11.35;;;7.03;;
22250;SDS011;59348;52.158;5.588;2022-12-08T00:50:55;12.20;;;7.45;;
22250;SDS011;59348;52.158;5.588;2022-12-08T00:53:23;8.95;;;7.05;;
22250;SDS011;59348;52.158;5.588;2022-12-08T00:55:51;10.30;;;7.53;;
22250;SDS011;59348;52.158;5.588;2022-12-08T00:58:20;9.05;;;6.75;;
22250;SDS011;59348;52.158;5.588;2022-12-08T01:00:47;11.93;;;7.35;;
22250;SDS011;59348;52.158;5.588;2022-12-08T01:03:15;14.48;;;7.50;;
22250;SDS011;59348;52.158;5.588;2022-12-08T01:05:43;10.80;;;6.70;;
22250;SDS011;59348;52.158;5.588;2022-12-08T01:08:11;11.15;;;7.68;;
22250;SDS011;59348;52.158;5.588;2022-12-08T01:10:39;12.23;;;7.00;;
22250;SDS011;59348;52.158;5.588;2022-12-08T01:13:06;11.95;;;7.50;;
22250;SDS011;59348;52.158;5.588;2022-12-08T01:15:36;9.18;;;6.95;;
22250;SDS011;59348;52.158;5.588;2022-12-08T01:18:04;9.65;;;7.60;;
22250;SDS011;59348;52.158;5.588;2022-12-08T01:20:31;9.88;;;7.35;;
22250;SDS011;59348;52.158;5.588;2022-12-08T01:22:59;9.38;;;7.70;;
22250;SDS011;59348;52.158;5.588;2022-12-08T01:25:26;10.10;;;7.85;;
22250;SDS011;59348;52.158;5.588;2022-12-08T01:27:54;10.15;;;7.47;;
22250;SDS011;59348;52.158;5.588;2022-12-08T01:30:22;10.63;;;7.43;;
22250;SDS011;59348;52.158;5.588;2022-12-08T01:32:53;9.25;;;8.07;;
22250;SDS011;59348;52.158;5.588;2022-12-08T01:35:21;10.82;;;7.85;;
22250;SDS011;59348;52.158;5.588;2022-12-08T01:37:50;12.13;;;7.95;;
22250;SDS011;59348;52.158;5.588;2022-12-08T01:40:18;9.20;;;7.85;;
22250;SDS011;59348;52.158;5.588;2022-12-08T01:42:46;9.50;;;7.53;;
22250;SDS011;59348;52.158;5.588;2022-12-08T01:45:16;8.23;;;7.38;;
22250;SDS011;59348;52.158;5.588;2022-12-08T01:47:48;11.02;;;7.88;;
22250;SDS011;59348;52.158;5.588;2022-12-08T01:50:22;9.00;;;7.25;;
22250;SDS011;59348;52.158;5.588;2022-12-08T01:52:50;9.02;;;7.40;;
22250;SDS011;59348;52.158;5.588;2022-12-08T01:55:20;8.25;;;7.00;;
22250;SDS011;59348;52.158;5.588;2022-12-08T01:57:51;8.02;;;6.28;;
22250;SDS011;59348;52.158;5.588;2022-12-08T02:00:22;8.57;;;6.68;;
22250;SDS011;59348;52.158;5.588;2022-12-08T02:02:52;6.95;;;6.07;;
22250;SDS011;59348;52.158;5.588;2022-12-08T02:05:23;6.35;;;5.55;;
22250;SDS011;59348;52.158;5.588;2022-12-08T02:07:51;7.82;;;5.47;;
22250;SDS011;59348;52.158;5.588;2022-12-08T02:10:21;6.78;;;5.10;;
22250;SDS011;59348;52.158;5.588;2022-12-08T02:12:50;6.75;;;4.82;;
22250;SDS011;59348;52.158;5.588;2022-12-08T02:15:21;5.30;;;4.60;;
22250;SDS011;59348;52.158;5.588;2022-12-08T02:17:56;6.32;;;4.70;;
22250;SDS011;59348;52.158;5.588;2022-12-08T02:20:32;5.95;;;4.30;;
22250;SDS011;59348;52.158;5.588;2022-12-08T02:23:03;5.55;;;4.40;;
22250;SDS011;59348;52.158;5.588;2022-12-08T02:25:35;5.35;;;4.22;;
22250;SDS011;59348;52.158;5.588;2022-12-08T02:28:09;5.60;;;4.22;;
22250;SDS011;59348;52.158;5.588;2022-12-08T02:30:43;4.72;;;4.13;;
22250;SDS011;59348;52.158;5.588;2022-12-08T02:33:25;8.18;;;4.30;;
22250;SDS011;59348;52.158;5.588;2022-12-08T02:35:57;5.00;;;4.40;;
22250;SDS011;59348;52.158;5.588;2022-12-08T02:38:28;4.90;;;4.32;;
22250;SDS011;59348;52.158;5.588;2022-12-08T02:40:58;5.32;;;4.82;;
22250;SDS011;59348;52.158;5.588;2022-12-08T02:43:30;6.05;;;4.55;;
22250;SDS011;59348;52.158;5.588;2022-12-08T02:46:00;5.43;;;4.88;;
22250;SDS011;59348;52.158;5.588;2022-12-08T02:48:29;7.95;;;5.10;;
22250;SDS011;59348;52.158;5.588;2022-12-08T02:50:58;6.68;;;5.65;;
22250;SDS011;59348;52.158;5.588;2022-12-08T02:53:26;10.27;;;5.88;;
22250;SDS011;59348;52.158;5.588;2022-12-08T02:55:55;7.78;;;6.80;;
22250;SDS011;59348;52.158;5.588;2022-12-08T02:58:29;9.63;;;7.30;;
22250;SDS011;59348;52.158;5.588;2022-12-08T03:01:05;9.15;;;7.85;;
22250;SDS011;59348;52.158;5.588;2022-12-08T03:03:37;11.65;;;8.20;;
22250;SDS011;59348;52.158;5.588;2022-12-08T03:06:11;12.05;;;8.88;;
22250;SDS011;59348;52.158;5.588;2022-12-08T03:08:44;16.58;;;9.45;;
22250;SDS011;59348;52.158;5.588;2022-12-08T03:11:18;12.73;;;9.95;;
22250;SDS011;59348;52.158;5.588;2022-12-08T03:13:49;13.35;;;10.32;;
22250;SDS011;59348;52.158;5.588;2022-12-08T03:16:19;16.15;;;10.27;;
22250;SDS011;59348;52.158;5.588;2022-12-08T03:18:50;14.10;;;10.73;;
22250;SDS011;59348;52.158;5.588;2022-12-08T03:21:20;12.70;;;10.25;;
22250;SDS011;59348;52.158;5.588;2022-12-08T03:23:48;14.35;;;9.75;;
22250;SDS011;59348;52.158;5.588;2022-12-08T03:26:24;12.68;;;10.35;;
22250;SDS011;59348;52.158;5.588;2022-12-08T03:28:55;17.05;;;10.38;;
22250;SDS011;59348;52.158;5.588;2022-12-08T03:31:24;13.43;;;9.88;;
22250;SDS011;59348;52.158;5.588;2022-12-08T03:33:53;11.77;;;9.48;;
22250;SDS011;59348;52.158;5.588;2022-12-08T03:36:23;11.93;;;9.57;;
22250;SDS011;59348;52.158;5.588;2022-12-08T03:38:52;14.27;;;9.57;;
22250;SDS011;59348;52.158;5.588;2022-12-08T03:41:21;11.68;;;8.50;;
22250;SDS011;59348;52.158;5.588;2022-12-08T03:43:50;12.75;;;8.77;;
22250;SDS011;59348;52.158;5.588;2022-12-08T03:46:19;8.57;;;6.70;;
22250;SDS011;59348;52.158;5.588;2022-12-08T03:48:47;12.85;;;6.85;;
22250;SDS011;59348;52.158;5.588;2022-12-08T03:51:16;8.43;;;6.25;;
22250;SDS011;59348;52.158;5.588;2022-12-08T03:53:46;9.18;;;6.65;;
22250;SDS011;59348;52.158;5.588;2022-12-08T03:56:15;8.45;;;6.70;;
22250;SDS011;59348;52.158;5.588;2022-12-08T03:58:42;10.05;;;6.68;;
22250;SDS011;59348;52.158;5.588;2022-12-08T04:01:10;8.68;;;6.75;;
22250;SDS011;59348;52.158;5.588;2022-12-08T04:03:38;8.75;;;6.43;;
22250;SDS011;59348;52.158;5.588;2022-12-08T04:06:06;6.93;;;5.90;;
22250;SDS011;59348;52.158;5.588;2022-12-08T04:08:35;8.32;;;5.70;;
22250;SDS011;59348;52.158;5.588;2022-12-08T04:11:04;7.60;;;5.68;;
22250;SDS011;59348;52.158;5.588;2022-12-08T04:13:32;7.47;;;5.10;;
22250;SDS011;59348;52.158;5.588;2022-12-08T04:16:00;6.65;;;4.72;;
22250;SDS011;59348;52.158;5.588;2022-12-08T04:18:29;5.65;;;4.95;;
22250;SDS011;59348;52.158;5.588;2022-12-08T04:20:57;7.72;;;4.50;;
22250;SDS011;59348;52.158;5.588;2022-12-08T04:23:25;5.55;;;3.58;;
22250;SDS011;59348;52.158;5.588;2022-12-08T04:25:53;6.53;;;3.75;;
22250;SDS011;59348;52.158;5.588;2022-12-08T04:28:23;5.53;;;3.50;;
22250;SDS011;59348;52.158;5.588;2022-12-08T04:30:52;4.60;;;3.00;;
22250;SDS011;59348;52.158;5.588;2022-12-08T04:33:21;5.15;;;2.80;;
22250;SDS011;59348;52.158;5.588;2022-12-08T04:35:49;4.03;;;2.45;;
22250;SDS011;59348;52.158;5.588;2022-12-08T04:38:17;5.63;;;1.92;;
22250;SDS011;59348;52.158;5.588;2022-12-08T04:40:44;3.60;;;2.00;;
22250;SDS011;59348;52.158;5.588;2022-12-08T04:43:11;3.58;;;1.80;;
22250;SDS011;59348;52.158;5.588;2022-12-08T04:45:41;4.32;;;1.92;;
22250;SDS011;59348;52.158;5.588;2022-12-08T04:48:10;3.63;;;1.92;;
22250;SDS011;59348;52.158;5.588;2022-12-08T04:50:38;3.53;;;1.70;;
22250;SDS011;59348;52.158;5.588;2022-12-08T04:53:06;3.17;;;1.50;;
22250;SDS011;59348;52.158;5.588;2022-12-08T04:55:33;3.53;;;1.60;;
22250;SDS011;59348;52.158;5.588;2022-12-08T04:58:01;4.80;;;1.90;;
22250;SDS011;59348;52.158;5.588;2022-12-08T05:00:29;3.72;;;1.92;;
22250;SDS011;59348;52.158;5.588;2022-12-08T05:02:59;2.78;;;1.80;;
22250;SDS011;59348;52.158;5.588;2022-12-08T05:05:27;3.50;;;1.88;;
22250;SDS011;59348;52.158;5.588;2022-12-08T05:07:56;4.95;;;1.80;;
22250;SDS011;59348;52.158;5.588;2022-12-08T05:10:24;5.85;;;2.30;;
22250;SDS011;59348;52.158;5.588;2022-12-08T05:12:53;2.40;;;2.00;;
22250;SDS011;59348;52.158;5.588;2022-12-08T05:15:21;3.88;;;2.78;;
22250;SDS011;59348;52.158;5.588;2022-12-08T05:17:48;7.05;;;2.95;;
22250;SDS011;59348;52.158;5.588;2022-12-08T05:20:18;3.63;;;3.00;;
22250;SDS011;59348;52.158;5.588;2022-12-08T05:22:47;6.32;;;3.15;;
22250;SDS011;59348;52.158;5.588;2022-12-08T05:25:15;6.65;;;3.00;;
22250;SDS011;59348;52.158;5.588;2022-12-08T05:27:44;3.58;;;2.78;;
22250;SDS011;59348;52.158;5.588;2022-12-08T05:30:14;4.68;;;2.95;;
22250;SDS011;59348;52.158;5.588;2022-12-08T05:32:42;4.15;;;2.95;;
22250;SDS011;59348;52.158;5.588;2022-12-08T05:35:10;5.10;;;3.40;;
22250;SDS011;59348;52.158;5.588;2022-12-08T05:37:40;6.28;;;3.13;;
22250;SDS011;59348;52.158;5.588;2022-12-08T05:40:09;4.65;;;3.60;;
22250;SDS011;59348;52.158;5.588;2022-12-08T05:42:36;4.50;;;3.60;;
22250;SDS011;59348;52.158;5.588;2022-12-08T05:45:04;5.75;;;4.13;;
22250;SDS011;59348;52.158;5.588;2022-12-08T05:47:32;5.97;;;3.92;;
22250;SDS011;59348;52.158;5.588;2022-12-08T05:50:00;7.35;;;3.78;;
22250;SDS011;59348;52.158;5.588;2022-12-08T05:52:28;7.05;;;3.72;;
22250;SDS011;59348;52.158;5.588;2022-12-08T05:54:56;4.63;;;3.10;;
22250;SDS011;59348;52.158;5.588;2022-12-08T05:57:24;4.43;;;3.63;;
22250;SDS011;59348;52.158;5.588;2022-12-08T05:59:52;3.33;;;2.03;;
22250;SDS011;59348;52.158;5.588;2022-12-08T06:02:21;2.70;;;2.20;;
22250;SDS011;59348;52.158;5.588;2022-12-08T06:04:49;6.50;;;2.60;;
22250;SDS011;59348;52.158;5.588;2022-12-08T06:07:16;2.90;;;2.00;;
22250;SDS011;59348;52.158;5.588;2022-12-08T06:09:44;3.22;;;1.80;;
22250;SDS011;59348;52.158;5.588;2022-12-08T06:12:13;2.25;;;1.80;;
22250;SDS011;59348;52.158;5.588;2022-12-08T06:14:40;2.78;;;1.60;;
22250;SDS011;59348;52.158;5.588;2022-12-08T06:17:08;4.45;;;1.58;;
22250;SDS011;59348;52.158;5.588;2022-12-08T06:19:36;2.08;;;1.60;;
22250;SDS011;59348;52.158;5.588;2022-12-08T06:22:03;2.92;;;1.83;;
22250;SDS011;59348;52.158;5.588;2022-12-08T06:24:32;2.65;;;1.75;;
22250;SDS011;59348;52.158;5.588;2022-12-08T06:26:59;3.58;;;1.98;;
22250;SDS011;59348;52.158;5.588;2022-12-08T06:29:28;2.40;;;1.70;;
22250;SDS011;59348;52.158;5.588;2022-12-08T06:31:55;1.98;;;1.45;;
22250;SDS011;59348;52.158;5.588;2022-12-08T06:34:23;4.05;;;1.60;;
22250;SDS011;59348;52.158;5.588;2022-12-08T06:36:51;3.10;;;1.77;;
22250;SDS011;59348;52.158;5.588;2022-12-08T06:39:18;4.07;;;1.70;;
22250;SDS011;59348;52.158;5.588;2022-12-08T06:41:46;4.45;;;1.80;;
22250;SDS011;59348;52.158;5.588;2022-12-08T06:44:28;3.03;;;1.92;;
22250;SDS011;59348;52.158;5.588;2022-12-08T06:46:56;2.90;;;1.88;;
22250;SDS011;59348;52.158;5.588;2022-12-08T06:49:25;3.13;;;2.03;;
22250;SDS011;59348;52.158;5.588;2022-12-08T06:51:52;4.30;;;1.90;;
22250;SDS011;59348;52.158;5.588;2022-12-08T06:54:20;3.72;;;2.20;;
22250;SDS011;59348;52.158;5.588;2022-12-08T06:56:47;3.35;;;2.05;;
22250;SDS011;59348;52.158;5.588;2022-12-08T06:59:14;3.17;;;2.30;;
22250;SDS011;59348;52.158;5.588;2022-12-08T07:01:45;3.80;;;2.17;;
22250;SDS011;59348;52.158;5.588;2022-12-08T07:04:13;2.33;;;2.03;;
22250;SDS011;59348;52.158;5.588;2022-12-08T07:06:41;4.60;;;2.55;;
22250;SDS011;59348;52.158;5.588;2022-12-08T07:09:08;3.50;;;2.15;;
22250;SDS011;59348;52.158;5.588;2022-12-08T07:11:36;6.90;;;2.25;;
22250;SDS011;59348;52.158;5.588;2022-12-08T07:14:04;3.13;;;2.30;;
22250;SDS011;59348;52.158;5.588;2022-12-08T07:16:31;3.33;;;2.10;;
22250;SDS011;59348;52.158;5.588;2022-12-08T07:19:00;2.38;;;1.83;;
22250;SDS011;59348;52.158;5.588;2022-12-08T07:21:28;2.13;;;1.92;;
22250;SDS011;59348;52.158;5.588;2022-12-08T07:23:56;4.55;;;1.90;;
22250;SDS011;59348;52.158;5.588;2022-12-08T07:26:23;3.35;;;2.00;;
22250;SDS011;59348;52.158;5.588;2022-12-08T07:28:50;2.33;;;1.60;;
22250;SDS011;59348;52.158;5.588;2022-12-08T07:31:19;3.40;;;2.00;;
22250;SDS011;59348;52.158;5.588;2022-12-08T07:33:47;4.68;;;1.80;;
22250;SDS011;59348;52.158;5.588;2022-12-08T07:36:16;2.38;;;1.65;;
22250;SDS011;59348;52.158;5.588;2022-12-08T07:38:44;2.13;;;1.50;;
22250;SDS011;59348;52.158;5.588;2022-12-08T07:41:11;1.83;;;1.30;;
22250;SDS011;59348;52.158;5.588;2022-12-08T07:43:39;5.15;;;1.50;;
22250;SDS011;59348;52.158;5.588;2022-12-08T07:46:06;2.80;;;1.40;;
22250;SDS011;59348;52.158;5.588;2022-12-08T07:48:34;2.60;;;1.52;;
22250;SDS011;59348;52.158;5.588;2022-12-08T07:51:01;1.83;;;1.73;;
22250;SDS011;59348;52.158;5.588;2022-12-08T07:53:30;2.03;;;1.75;;
22250;SDS011;59348;52.158;5.588;2022-12-08T07:55:58;4.53;;;2.40;;
22250;SDS011;59348;52.158;5.588;2022-12-08T07:58:25;4.93;;;2.20;;
22250;SDS011;59348;52.158;5.588;2022-12-08T08:00:53;3.00;;;2.38;;
22250;SDS011;59348;52.158;5.588;2022-12-08T08:03:20;4.07;;;2.72;;
22250;SDS011;59348;52.158;5.588;2022-12-08T08:05:47;6.80;;;3.30;;
22250;SDS011;59348;52.158;5.588;2022-12-08T08:08:15;5.63;;;3.45;;
22250;SDS011;59348;52.158;5.588;2022-12-08T08:10:43;5.47;;;3.40;;
22250;SDS011;59348;52.158;5.588;2022-12-08T08:13:11;5.70;;;3.58;;
22250;SDS011;59348;52.158;5.588;2022-12-08T08:15:39;6.18;;;4.10;;
22250;SDS011;59348;52.158;5.588;2022-12-08T08:18:06;5.40;;;3.80;;
22250;SDS011;59348;52.158;5.588;2022-12-08T08:20:33;4.90;;;3.88;;
22250;SDS011;59348;52.158;5.588;2022-12-08T08:23:00;6.82;;;4.40;;
22250;SDS011;59348;52.158;5.588;2022-12-08T08:25:28;9.88;;;5.00;;
22250;SDS011;59348;52.158;5.588;2022-12-08T08:27:56;5.70;;;4.45;;
22250;SDS011;59348;52.158;5.588;2022-12-08T08:30:24;6.93;;;4.72;;
22250;SDS011;59348;52.158;5.588;2022-12-08T08:32:51;6.97;;;5.13;;
22250;SDS011;59348;52.158;5.588;2022-12-08T08:35:18;6.35;;;4.78;;
22250;SDS011;59348;52.158;5.588;2022-12-08T08:37:45;7.82;;;4.80;;
22250;SDS011;59348;52.158;5.588;2022-12-08T08:40:13;9.23;;;5.60;;
22250;SDS011;59348;52.158;5.588;2022-12-08T08:42:40;9.73;;;5.00;;
22250;SDS011;59348;52.158;5.588;2022-12-08T08:45:09;6.50;;;5.10;;
22250;SDS011;59348;52.158;5.588;2022-12-08T08:47:37;6.82;;;5.50;;
22250;SDS011;59348;52.158;5.588;2022-12-08T08:50:04;6.53;;;5.07;;
22250;SDS011;59348;52.158;5.588;2022-12-08T08:52:32;7.53;;;5.05;;
22250;SDS011;59348;52.158;5.588;2022-12-08T08:54:59;6.22;;;5.10;;
22250;SDS011;59348;52.158;5.588;2022-12-08T08:57:27;5.97;;;4.95;;
22250;SDS011;59348;52.158;5.588;2022-12-08T08:59:54;5.82;;;4.40;;
22250;SDS011;59348;52.158;5.588;2022-12-08T09:02:23;6.70;;;5.20;;
22250;SDS011;59348;52.158;5.588;2022-12-08T09:04:51;6.30;;;4.65;;
22250;SDS011;59348;52.158;5.588;2022-12-08T09:07:18;5.15;;;4.15;;
22250;SDS011;59348;52.158;5.588;2022-12-08T09:09:45;9.05;;;4.43;;
22250;SDS011;59348;52.158;5.588;2022-12-08T09:12:13;4.65;;;4.18;;
22250;SDS011;59348;52.158;5.588;2022-12-08T09:14:40;5.85;;;3.97;;
22250;SDS011;59348;52.158;5.588;2022-12-08T09:17:07;4.45;;;3.53;;
22250;SDS011;59348;52.158;5.588;2022-12-08T09:19:36;3.20;;;2.88;;
22250;SDS011;59348;52.158;5.588;2022-12-08T09:22:04;3.80;;;3.17;;
22250;SDS011;59348;52.158;5.588;2022-12-08T09:24:31;3.58;;;2.80;;
22250;SDS011;59348;52.158;5.588;2022-12-08T09:26:59;4.70;;;2.53;;
22250;SDS011;59348;52.158;5.588;2022-12-08T09:29:26;2.25;;;2.05;;
22250;SDS011;59348;52.158;5.588;2022-12-08T09:31:53;3.47;;;2.30;;
22250;SDS011;59348;52.158;5.588;2022-12-08T09:34:21;3.15;;;2.20;;
22250;SDS011;59348;52.158;5.588;2022-12-08T09:36:50;2.10;;;1.80;;
22250;SDS011;59348;52.158;5.588;2022-12-08T09:39:17;2.75;;;1.75;;
22250;SDS011;59348;52.158;5.588;2022-12-08T09:41:46;3.78;;;1.55;;
22250;SDS011;59348;52.158;5.588;2022-12-08T09:44:20;1.90;;;1.75;;
22250;SDS011;59348;52.158;5.588;2022-12-08T09:46:55;2.22;;;1.75;;
22250;SDS011;59348;52.158;5.588;2022-12-08T09:49:25;4.03;;;1.67;;
22250;SDS011;59348;52.158;5.588;2022-12-08T09:51:56;4.72;;;1.60;;
22250;SDS011;59348;52.158;5.588;2022-12-08T09:54:32;1.48;;;1.33;;
22250;SDS011;59348;52.158;5.588;2022-12-08T09:57:02;3.05;;;1.27;;
22250;SDS011;59348;52.158;5.588;2022-12-08T09:59:32;3.22;;;1.30;;
22250;SDS011;59348;52.158;5.588;2022-12-08T10:02:00;1.58;;;1.30;;
22250;SDS011;59348;52.158;5.588;2022-12-08T10:04:28;1.10;;;0.93;;
22250;SDS011;59348;52.158;5.588;2022-12-08T10:07:00;3.75;;;1.10;;
22250;SDS011;59348;52.158;5.588;2022-12-08T10:09:31;1.73;;;0.98;;
22250;SDS011;59348;52.158;5.588;2022-12-08T10:12:02;1.67;;;1.20;;
22250;SDS011;59348;52.158;5.588;2022-12-08T10:14:32;1.83;;;1.10;;
22250;SDS011;59348;52.158;5.588;2022-12-08T10:17:02;1.25;;;1.15;;
22250;SDS011;59348;52.158;5.588;2022-12-08T10:19:31;1.67;;;1.33;;
22250;SDS011;59348;52.158;5.588;2022-12-08T10:22:04;1.83;;;1.30;;
22250;SDS011;59348;52.158;5.588;2022-12-08T10:24:38;2.78;;;1.30;;
22250;SDS011;59348;52.158;5.588;2022-12-08T10:27:09;1.55;;;1.45;;
22250;SDS011;59348;52.158;5.588;2022-12-08T10:29:36;3.47;;;1.48;;
22250;SDS011;59348;52.158;5.588;2022-12-08T10:32:08;2.20;;;1.63;;
22250;SDS011;59348;52.158;5.588;2022-12-08T10:34:37;2.53;;;1.60;;
22250;SDS011;59348;52.158;5.588;2022-12-08T10:37:25;2.80;;;1.52;;
22250;SDS011;59348;52.158;5.588;2022-12-08T10:39:57;1.92;;;1.52;;
22250;SDS011;59348;52.158;5.588;2022-12-08T10:42:36;4.10;;;1.50;;
22250;SDS011;59348;52.158;5.588;2022-12-08T10:45:16;2.88;;;1.58;;
22250;SDS011;59348;52.158;5.588;2022-12-08T10:47:48;1.80;;;1.40;;
22250;SDS011;59348;52.158;5.588;2022-12-08T10:50:22;1.23;;;1.13;;
22250;SDS011;59348;52.158;5.588;2022-12-08T10:52:54;2.83;;;1.45;;
22250;SDS011;59348;52.158;5.588;2022-12-08T10:55:23;5.25;;;1.42;;
22250;SDS011;59348;52.158;5.588;2022-12-08T10:57:50;2.17;;;1.30;;
22250;SDS011;59348;52.158;5.588;2022-12-08T11:00:18;2.92;;;1.23;;
22250;SDS011;59348;52.158;5.588;2022-12-08T11:02:54;2.13;;;1.23;;
22250;SDS011;59348;52.158;5.588;2022-12-08T11:05:24;3.30;;;1.10;;
22250;SDS011;59348;52.158;5.588;2022-12-08T11:07:55;1.48;;;1.10;;
22250;SDS011;59348;52.158;5.588;2022-12-08T11:10:27;2.10;;;1.20;;
22250;SDS011;59348;52.158;5.588;2022-12-08T11:12:54;2.78;;;1.30;;
22250;SDS011;59348;52.158;5.588;2022-12-08T11:15:24;2.40;;;1.20;;
22250;SDS011;59348;52.158;5.588;2022-12-08T11:17:58;2.08;;;1.00;;
22250;SDS011;59348;52.158;5.588;2022-12-08T11:20:27;1.88;;;1.20;;
22250;SDS011;59348;52.158;5.588;2022-12-08T11:22:56;2.58;;;1.30;;
22250;SDS011;59348;52.158;5.588;2022-12-08T11:25:24;2.45;;;1.30;;
22250;SDS011;59348;52.158;5.588;2022-12-08T11:27:52;1.17;;;0.85;;
22250;SDS011;59348;52.158;5.588;2022-12-08T11:30:21;3.75;;;1.02;;
22250;SDS011;59348;52.158;5.588;2022-12-08T11:32:49;2.72;;;0.98;;
22250;SDS011;59348;52.158;5.588;2022-12-08T11:35:19;2.45;;;1.00;;
22250;SDS011;59348;52.158;5.588;2022-12-08T11:37:47;1.90;;;1.00;;
22250;SDS011;59348;52.158;5.588;2022-12-08T11:40:17;1.20;;;1.02;;
22250;SDS011;59348;52.158;5.588;2022-12-08T11:42:49;1.23;;;0.90;;
22250;SDS011;59348;52.158;5.588;2022-12-08T11:45:19;1.63;;;0.98;;
22250;SDS011;59348;52.158;5.588;2022-12-08T11:47:48;1.42;;;0.80;;
22250;SDS011;59348;52.158;5.588;2022-12-08T11:50:19;0.85;;;0.68;;
22250;SDS011;59348;52.158;5.588;2022-12-08T11:52:48;2.25;;;0.82;;
22250;SDS011;59348;52.158;5.588;2022-12-08T11:55:22;1.27;;;0.80;;
22250;SDS011;59348;52.158;5.588;2022-12-08T11:57:54;0.70;;;0.70;;
22250;SDS011;59348;52.158;5.588;2022-12-08T12:00:23;0.73;;;0.73;;
22250;SDS011;59348;52.158;5.588;2022-12-08T12:02:51;1.40;;;0.80;;
22250;SDS011;59348;52.158;5.588;2022-12-08T12:05:28;0.70;;;0.70;;
22250;SDS011;59348;52.158;5.588;2022-12-08T12:08:01;1.73;;;0.93;;
22250;SDS011;59348;52.158;5.588;2022-12-08T12:10:38;1.75;;;0.93;;
22250;SDS011;59348;52.158;5.588;2022-12-08T12:13:14;1.33;;;1.10;;
22250;SDS011;59348;52.158;5.588;2022-12-08T12:15:52;4.75;;;1.48;;
22250;SDS011;59348;52.158;5.588;2022-12-08T12:18:24;1.45;;;1.30;;
22250;SDS011;59348;52.158;5.588;2022-12-08T12:20:54;3.25;;;1.55;;
22250;SDS011;59348;52.158;5.588;2022-12-08T12:23:23;2.95;;;2.00;;
22250;SDS011;59348;52.158;5.588;2022-12-08T12:25:55;2.85;;;2.20;;
22250;SDS011;59348;52.158;5.588;2022-12-08T12:28:24;2.97;;;1.85;;
22250;SDS011;59348;52.158;5.588;2022-12-08T12:30:53;2.58;;;1.95;;
22250;SDS011;59348;52.158;5.588;2022-12-08T12:33:21;1.83;;;1.63;;
22250;SDS011;59348;52.158;5.588;2022-12-08T12:35:49;3.15;;;1.75;;
22250;SDS011;59348;52.158;5.588;2022-12-08T12:38:19;2.25;;;1.40;;
22250;SDS011;59348;52.158;5.588;2022-12-08T12:41:03;3.33;;;1.67;;
22250;SDS011;59348;52.158;5.588;2022-12-08T12:43:36;2.33;;;1.60;;
22250;SDS011;59348;52.158;5.588;2022-12-08T12:48:46;2.90;;;1.20;;
22250;SDS011;59348;52.158;5.588;2022-12-08T12:53:56;1.52;;;0.80;;
22250;SDS011;59348;52.158;5.588;2022-12-08T12:56:52;2.10;;;0.98;;
22250;SDS011;59348;52.158;5.588;2022-12-08T12:59:34;1.30;;;0.88;;
22250;SDS011;59348;52.158;5.588;2022-12-08T13:02:01;1.77;;;0.80;;
22250;SDS011;59348;52.158;5.588;2022-12-08T13:04:29;1.98;;;0.65;;
22250;SDS011;59348;52.158;5.588;2022-12-08T13:06:58;2.20;;;0.50;;
22250;SDS011;59348;52.158;5.588;2022-12-08T13:09:27;2.25;;;0.57;;
22250;SDS011;59348;52.158;5.588;2022-12-08T13:11:57;2.08;;;0.40;;
22250;SDS011;59348;52.158;5.588;2022-12-08T13:14:26;1.02;;;0.40;;
22250;SDS011;59348;52.158;5.588;2022-12-08T13:16:54;1.08;;;0.50;;
22250;SDS011;59348;52.158;5.588;2022-12-08T13:19:22;2.45;;;0.60;;
22250;SDS011;59348;52.158;5.588;2022-12-08T13:21:49;2.25;;;0.45;;
22250;SDS011;59348;52.158;5.588;2022-12-08T13:24:26;1.05;;;0.40;;
22250;SDS011;59348;52.158;5.588;2022-12-08T13:29:37;2.30;;;0.57;;
22250;SDS011;59348;52.158;5.588;2022-12-08T13:32:09;2.78;;;0.50;;
22250;SDS011;59348;52.158;5.588;2022-12-08T13:34:57;1.70;;;0.60;;
22250;SDS011;59348;52.158;5.588;2022-12-08T13:37:27;1.08;;;0.60;;
22250;SDS011;59348;52.158;5.588;2022-12-08T13:39:56;2.05;;;0.80;;
22250;SDS011;59348;52.158;5.588;2022-12-08T13:42:28;0.68;;;0.50;;
22250;SDS011;59348;52.158;5.588;2022-12-08T13:44:58;1.23;;;0.60;;
22250;SDS011;59348;52.158;5.588;2022-12-08T13:47:28;0.80;;;0.50;;
22250;SDS011;59348;52.158;5.588;2022-12-08T13:50:00;2.13;;;0.40;;
22250;SDS011;59348;52.158;5.588;2022-12-08T13:52:30;0.50;;;0.50;;
22250;SDS011;59348;52.158;5.588;2022-12-08T13:54:58;0.47;;;0.40;;
22250;SDS011;59348;52.158;5.588;2022-12-08T13:57:27;1.00;;;0.60;;
22250;SDS011;59348;52.158;5.588;2022-12-08T13:59:59;1.42;;;0.80;;
22250;SDS011;59348;52.158;5.588;2022-12-08T14:02:28;1.58;;;1.10;;
22250;SDS011;59348;52.158;5.588;2022-12-08T14:04:56;1.60;;;1.00;;
22250;SDS011;59348;52.158;5.588;2022-12-08T14:07:23;1.52;;;1.20;;
22250;SDS011;59348;52.158;5.588;2022-12-08T14:09:51;1.58;;;1.10;;
22250;SDS011;59348;52.158;5.588;2022-12-08T14:12:19;1.85;;;1.40;;
22250;SDS011;59348;52.158;5.588;2022-12-08T14:14:48;2.63;;;1.30;;
22250;SDS011;59348;52.158;5.588;2022-12-08T14:17:18;2.22;;;1.45;;
22250;SDS011;59348;52.158;5.588;2022-12-08T14:19:51;5.68;;;1.45;;
22250;SDS011;59348;52.158;5.588;2022-12-08T14:22:19;2.20;;;1.45;;
22250;SDS011;59348;52.158;5.588;2022-12-08T14:24:47;2.35;;;1.70;;
22250;SDS011;59348;52.158;5.588;2022-12-08T14:27:15;4.07;;;1.58;;
22250;SDS011;59348;52.158;5.588;2022-12-08T14:29:43;2.10;;;1.90;;
22250;SDS011;59348;52.158;5.588;2022-12-08T14:32:21;3.90;;;2.03;;
22250;SDS011;59348;52.158;5.588;2022-12-08T14:34:49;2.60;;;2.40;;
22250;SDS011;59348;52.158;5.588;2022-12-08T14:37:17;2.90;;;2.30;;
22250;SDS011;59348;52.158;5.588;2022-12-08T14:39:45;2.92;;;2.53;;
22250;SDS011;59348;52.158;5.588;2022-12-08T14:42:14;4.10;;;2.90;;
22250;SDS011;59348;52.158;5.588;2022-12-08T14:44:47;4.95;;;3.25;;
22250;SDS011;59348;52.158;5.588;2022-12-08T14:47:17;5.63;;;3.65;;
22250;SDS011;59348;52.158;5.588;2022-12-08T14:49:47;3.80;;;3.40;;
22250;SDS011;59348;52.158;5.588;2022-12-08T14:52:14;3.72;;;3.30;;
22250;SDS011;59348;52.158;5.588;2022-12-08T14:54:41;3.88;;;3.45;;
22250;SDS011;59348;52.158;5.588;2022-12-08T14:57:10;4.93;;;3.83;;
22250;SDS011;59348;52.158;5.588;2022-12-08T14:59:39;5.82;;;3.72;;
22250;SDS011;59348;52.158;5.588;2022-12-08T15:02:09;4.78;;;3.67;;
22250;SDS011;59348;52.158;5.588;2022-12-08T15:04:37;4.15;;;3.70;;
22250;SDS011;59348;52.158;5.588;2022-12-08T15:07:08;5.07;;;3.90;;